createdAt,value
2018-12-12T00:00:11.420Z,74.66
2018-12-12T00:02:40.675Z,74.67
2018-12-12T00:05:29.539Z,74.74
2018-12-12T00:07:58.800Z,74.83
2018-12-12T00:10:28.074Z,74.92
2018-12-12T00:12:57.327Z,74.95
2018-12-12T00:15:26.598Z,74.92
2018-12-12T00:17:55.940Z,74.85
2018-12-12T00:20:25.267Z,74.92
2018-12-12T00:22:54.521Z,74.93
2018-12-12T00:25:23.785Z,75.03
2018-12-12T00:27:53.047Z,74.99
2018-12-12T00:30:22.324Z,75.03
2018-12-12T00:32:51.579Z,75.14
2018-12-12T00:35:20.874Z,75.21
2018-12-12T00:37:50.124Z,75.26
2018-12-12T00:40:19.421Z,75.21
2018-12-12T00:42:48.686Z,75.20
2018-12-12T00:45:17.941Z,75.20
2018-12-12T00:47:47.191Z,75.08
2018-12-12T00:50:16.468Z,75.06
2018-12-12T00:53:05.313Z,75.03
2018-12-12T00:55:34.606Z,75.01
2018-12-12T00:58:03.967Z,74.93
2018-12-12T01:00:33.242Z,74.94
2018-12-12T01:03:02.519Z,74.96
2018-12-12T01:05:31.798Z,74.87
2018-12-12T01:08:01.082Z,74.87
2018-12-12T01:10:30.385Z,74.83
2018-12-12T01:12:59.654Z,74.84
2018-12-12T01:15:28.931Z,74.79
2018-12-12T01:17:58.194Z,74.76
2018-12-12T01:20:27.463Z,74.91
2018-12-12T01:22:56.757Z,74.99
2018-12-12T01:25:26.039Z,75.02
2018-12-12T01:27:55.297Z,74.88
2018-12-12T01:30:24.570Z,74.90
2018-12-12T01:32:53.833Z,74.98
2018-12-12T01:35:23.115Z,74.92
2018-12-12T01:37:52.377Z,74.97
2018-12-12T01:40:21.654Z,74.98
2018-12-12T01:42:50.922Z,74.93
2018-12-12T01:45:20.203Z,75.01
2018-12-12T01:47:49.473Z,75.02
2018-12-12T01:50:18.748Z,75.02
2018-12-12T01:52:48.013Z,74.91
2018-12-12T01:55:17.302Z,75.03
2018-12-12T01:57:46.563Z,74.99
2018-12-12T02:00:15.848Z,75.00
2018-12-12T02:02:45.093Z,75.02
2018-12-12T02:05:14.335Z,74.95
2018-12-12T02:07:43.674Z,75.10
2018-12-12T02:10:12.914Z,75.07
2018-12-12T02:12:42.170Z,75.08
2018-12-12T02:15:11.415Z,75.07
2018-12-12T02:17:40.744Z,75.09
2018-12-12T02:20:10.027Z,75.15
2018-12-12T02:22:39.320Z,75.19
2018-12-12T02:25:08.572Z,75.20
2018-12-12T02:27:37.861Z,75.09
2018-12-12T02:30:07.178Z,75.43
2018-12-12T02:32:36.412Z,75.52
2018-12-12T02:35:06.426Z,75.55
2018-12-12T02:37:35.718Z,75.53
2018-12-12T02:40:05.066Z,75.53
2018-12-12T02:42:34.369Z,75.63
2018-12-12T02:45:03.644Z,75.67
2018-12-12T02:47:32.926Z,75.65
2018-12-12T02:50:02.186Z,75.64
2018-12-12T02:52:31.453Z,75.63
2018-12-12T02:55:00.737Z,75.67
2018-12-12T02:57:30.007Z,75.68
2018-12-12T02:59:59.265Z,75.70
2018-12-12T03:02:28.554Z,75.65
2018-12-12T03:04:57.803Z,75.58
2018-12-12T03:07:27.065Z,75.57
2018-12-12T03:09:56.315Z,75.59
2018-12-12T03:12:25.590Z,75.63
2018-12-12T03:14:54.859Z,75.64
2018-12-12T03:17:24.140Z,75.66
2018-12-12T03:19:53.410Z,75.62
2018-12-12T03:22:22.682Z,75.61
2018-12-12T03:24:51.940Z,75.70
2018-12-12T03:27:21.212Z,75.68
2018-12-12T03:29:50.482Z,75.55
2018-12-12T03:32:19.739Z,75.63
2018-12-12T03:34:49.012Z,75.67
2018-12-12T03:37:18.305Z,75.67
2018-12-12T03:39:47.603Z,75.65
2018-12-12T03:42:16.871Z,75.62
2018-12-12T03:44:46.141Z,75.63
2018-12-12T03:47:15.417Z,75.57
2018-12-12T03:49:44.673Z,75.61
2018-12-12T03:52:13.952Z,75.56
2018-12-12T03:54:43.210Z,75.55
2018-12-12T03:57:12.495Z,75.58
2018-12-12T03:59:41.772Z,75.61
2018-12-12T04:02:11.035Z,75.55
2018-12-12T04:04:40.292Z,75.50
2018-12-12T04:07:09.622Z,75.45
2018-12-12T04:09:38.893Z,75.37
2018-12-12T04:12:08.170Z,75.38
2018-12-12T04:14:37.441Z,75.41
2018-12-12T04:17:06.712Z,75.39
2018-12-12T04:19:36.022Z,75.43
2018-12-12T04:22:05.241Z,75.41
2018-12-12T04:24:34.498Z,75.40
2018-12-12T04:27:03.772Z,75.40
2018-12-12T04:29:33.049Z,75.50
2018-12-12T04:32:02.334Z,75.55
2018-12-12T04:34:31.591Z,75.50
2018-12-12T04:37:00.855Z,75.41
2018-12-12T04:39:30.119Z,75.46
2018-12-12T04:41:59.383Z,75.47
2018-12-12T04:44:28.659Z,75.39
2018-12-12T04:46:57.920Z,75.41
2018-12-12T04:49:27.201Z,75.36
2018-12-12T04:51:56.461Z,75.47
2018-12-12T04:54:25.748Z,75.41
2018-12-12T04:56:55.023Z,75.34
2018-12-12T04:59:24.478Z,75.35
2018-12-12T05:01:53.733Z,75.33
2018-12-12T05:04:23.007Z,75.32
2018-12-12T05:06:52.262Z,75.27
2018-12-12T05:09:21.541Z,75.29
2018-12-12T05:11:50.798Z,75.23
2018-12-12T05:14:20.064Z,75.18
2018-12-12T05:16:49.326Z,75.20
2018-12-12T05:19:18.598Z,75.12
2018-12-12T05:21:47.876Z,75.07
2018-12-12T05:24:17.148Z,75.07
2018-12-12T05:27:06.311Z,75.07
2018-12-12T05:29:35.553Z,75.00
2018-12-12T05:32:04.825Z,74.89
2018-12-12T05:34:34.095Z,74.87
2018-12-12T05:37:03.354Z,74.92
2018-12-12T05:39:32.676Z,74.89
2018-12-12T05:42:01.940Z,74.78
2018-12-12T05:44:31.219Z,74.84
2018-12-12T05:47:00.483Z,74.83
2018-12-12T05:49:29.743Z,74.79
2018-12-12T05:51:59.009Z,74.77
2018-12-12T05:54:28.277Z,74.63
2018-12-12T05:56:57.531Z,74.47
2018-12-12T05:59:26.806Z,74.51
2018-12-12T06:02:15.963Z,74.45
2018-12-12T06:09:54.818Z,74.25
2018-12-12T06:15:12.477Z,74.18
2018-12-12T06:17:41.739Z,74.11
2018-12-12T06:20:11.032Z,74.11
2018-12-12T06:25:29.593Z,74.19
2018-12-12T06:27:58.858Z,74.17
2018-12-12T06:30:28.148Z,74.22
2018-12-12T06:32:57.414Z,74.27
2018-12-12T06:35:26.691Z,74.30
2018-12-12T06:37:56.050Z,74.30
2018-12-12T06:40:25.343Z,74.36
2018-12-12T06:42:54.603Z,74.40
2018-12-12T06:45:23.883Z,74.44
2018-12-12T06:47:53.145Z,74.43
2018-12-12T06:50:22.417Z,74.43
2018-12-12T06:52:51.682Z,74.36
2018-12-12T06:55:20.959Z,74.47
2018-12-12T06:57:50.230Z,74.45
2018-12-12T07:00:19.539Z,74.41
2018-12-12T07:02:48.790Z,74.31
2018-12-12T07:05:18.071Z,74.30
2018-12-12T07:07:47.336Z,74.32
2018-12-12T07:10:16.614Z,74.23
2018-12-12T07:12:45.884Z,74.17
2018-12-12T07:15:15.164Z,74.20
2018-12-12T07:17:44.435Z,74.20
2018-12-12T07:20:13.715Z,74.15
2018-12-12T07:22:42.976Z,74.21
2018-12-12T07:25:12.274Z,74.15
2018-12-12T07:27:41.541Z,74.14
2018-12-12T07:30:10.822Z,74.15
2018-12-12T07:32:40.087Z,74.13
2018-12-12T07:35:09.403Z,74.10
2018-12-12T07:37:38.667Z,74.03
2018-12-12T07:40:07.946Z,74.06
2018-12-12T07:42:37.216Z,74.01
2018-12-12T07:45:06.498Z,74.04
2018-12-12T07:47:35.763Z,74.03
2018-12-12T07:50:05.431Z,74.03
2018-12-12T07:52:34.729Z,74.03
2018-12-12T07:55:04.041Z,74.02
2018-12-12T07:57:52.322Z,74.01
2018-12-12T08:00:21.605Z,74.00
2018-12-12T08:02:50.866Z,73.86
2018-12-12T08:05:20.138Z,73.82
2018-12-12T08:07:49.407Z,73.80
2018-12-12T08:10:18.687Z,73.80
2018-12-12T08:12:47.940Z,73.87
2018-12-12T08:15:17.213Z,73.87
2018-12-12T08:17:46.470Z,73.86
2018-12-12T08:20:15.738Z,73.80
2018-12-12T08:22:44.999Z,73.79
2018-12-12T08:25:14.273Z,73.72
2018-12-12T08:27:43.639Z,73.73
2018-12-12T08:30:12.923Z,73.70
2018-12-12T08:32:42.186Z,73.74
2018-12-12T08:35:11.461Z,73.73
2018-12-12T08:37:40.780Z,73.65
2018-12-12T08:40:10.348Z,73.65
2018-12-12T08:42:59.488Z,73.64
2018-12-12T08:45:28.783Z,73.68
2018-12-12T08:47:58.069Z,73.62
2018-12-12T08:50:27.354Z,73.61
2018-12-12T08:52:56.623Z,73.62
2018-12-12T08:55:25.902Z,73.62
2018-12-12T08:57:55.177Z,73.55
2018-12-12T09:00:24.460Z,73.53
2018-12-12T09:02:53.730Z,73.52
2018-12-12T09:05:23.041Z,73.50
2018-12-12T09:07:52.334Z,73.54
2018-12-12T09:10:21.611Z,73.44
2018-12-12T09:12:50.875Z,73.35
2018-12-12T09:15:20.165Z,73.26
2018-12-12T09:17:49.438Z,73.27
2018-12-12T09:20:18.717Z,73.29
2018-12-12T09:22:47.986Z,73.33
2018-12-12T09:25:17.258Z,73.33
2018-12-12T09:27:46.557Z,73.32
2018-12-12T09:30:15.824Z,73.32
2018-12-12T09:32:45.107Z,73.40
2018-12-12T09:35:14.371Z,73.45
2018-12-12T09:37:43.648Z,73.33
2018-12-12T09:40:12.917Z,73.12
2018-12-12T09:42:42.197Z,73.06
2018-12-12T09:45:11.463Z,72.99
2018-12-12T09:47:40.761Z,72.87
2018-12-12T09:50:10.020Z,72.77
2018-12-12T09:52:39.305Z,72.73
2018-12-12T09:55:08.578Z,72.68
2018-12-12T09:57:37.864Z,72.79
2018-12-12T10:00:07.188Z,72.77
2018-12-12T10:02:36.482Z,72.68
2018-12-12T10:05:06.059Z,72.68
2018-12-12T10:07:35.336Z,72.21
2018-12-12T10:10:04.623Z,72.42
2018-12-12T10:12:33.899Z,72.40
2018-12-12T10:15:03.162Z,72.47
2018-12-12T10:17:32.440Z,72.60
2018-12-12T10:20:21.299Z,72.60
2018-12-12T10:22:50.585Z,72.44
2018-12-12T10:25:19.835Z,72.68
2018-12-12T10:27:49.112Z,72.71
2018-12-12T10:30:18.380Z,72.46
2018-12-12T10:32:47.634Z,72.43
2018-12-12T10:35:16.896Z,71.95
2018-12-12T10:37:46.166Z,72.31
2018-12-12T10:40:15.419Z,72.36
2018-12-12T10:42:44.701Z,72.46
2018-12-12T10:45:13.954Z,72.18
2018-12-12T10:48:02.274Z,72.29
2018-12-12T10:50:31.552Z,72.43
2018-12-12T10:53:00.822Z,72.29
2018-12-12T10:55:30.100Z,72.21
2018-12-12T10:57:59.367Z,72.00
2018-12-12T11:00:28.618Z,72.01
2018-12-12T11:03:16.611Z,71.87
2018-12-12T11:06:05.492Z,72.10
2018-12-12T11:08:34.769Z,71.95
2018-12-12T11:11:04.024Z,72.02
2018-12-12T11:13:33.305Z,72.12
2018-12-12T11:16:02.576Z,72.06
2018-12-12T11:18:31.863Z,71.88
2018-12-12T11:21:01.142Z,71.80
2018-12-12T11:23:30.413Z,71.94
2018-12-12T11:25:59.696Z,71.77
2018-12-12T11:28:28.970Z,71.63
2018-12-12T11:30:58.241Z,71.73
2018-12-12T11:33:27.514Z,71.65
2018-12-12T11:35:56.777Z,71.71
2018-12-12T11:38:26.041Z,71.65
2018-12-12T11:40:55.323Z,71.59
2018-12-12T11:43:24.598Z,71.37
2018-12-12T11:45:53.879Z,71.32
2018-12-12T11:48:30.403Z,71.15
2018-12-12T11:50:59.681Z,71.20
2018-12-12T11:53:28.933Z,71.07
2018-12-12T11:55:58.206Z,70.99
2018-12-12T11:58:27.463Z,70.41
2018-12-12T12:00:56.756Z,70.77
2018-12-12T12:03:26.035Z,70.99
2018-12-12T12:05:55.314Z,70.98
2018-12-12T12:08:24.583Z,71.11
2018-12-12T12:10:53.863Z,71.23
2018-12-12T12:13:23.118Z,71.11
2018-12-12T12:15:52.397Z,71.17
2018-12-12T12:18:21.647Z,71.01
2018-12-12T12:20:50.984Z,71.12
2018-12-12T12:23:20.284Z,71.19
2018-12-12T12:25:49.554Z,71.26
2018-12-12T12:28:18.823Z,71.14
2018-12-12T12:30:48.106Z,70.99
2018-12-12T12:33:17.373Z,70.86
2018-12-12T12:35:46.667Z,70.86
2018-12-12T12:38:15.987Z,70.91
2018-12-12T12:40:45.264Z,71.01
2018-12-12T12:43:14.527Z,70.90
2018-12-12T12:45:43.807Z,70.89
2018-12-12T12:48:13.083Z,70.96
2018-12-12T12:50:42.356Z,70.97
2018-12-12T12:53:11.613Z,70.83
2018-12-12T12:55:40.918Z,70.86
2018-12-12T12:58:10.170Z,71.11
2018-12-12T13:00:39.460Z,71.29
2018-12-12T13:03:08.718Z,70.46
2018-12-12T13:05:37.982Z,70.95
2018-12-12T13:08:07.248Z,71.03
2018-12-12T13:10:36.586Z,71.02
2018-12-12T13:18:17.481Z,71.01
2018-12-12T13:20:46.743Z,70.78
2018-12-12T13:23:16.067Z,70.84
2018-12-12T13:25:45.325Z,70.73
2018-12-12T13:28:14.607Z,70.74
2018-12-12T13:30:43.874Z,71.49
2018-12-12T13:33:13.143Z,72.07
2018-12-12T13:35:42.474Z,72.37
2018-12-12T13:38:11.738Z,72.51
2018-12-12T13:40:41.002Z,72.57
2018-12-12T13:43:10.282Z,72.64
2018-12-12T13:46:05.633Z,72.71
2018-12-12T13:48:09.726Z,72.81
2018-12-12T13:50:38.993Z,72.95
2018-12-12T13:53:08.271Z,72.84
2018-12-12T13:55:37.528Z,72.59
2018-12-12T13:58:07.074Z,72.66
2018-12-12T14:00:39.194Z,71.96
2018-12-12T14:03:06.500Z,72.28
2018-12-12T14:05:35.790Z,72.47
2018-12-12T14:10:40.282Z,72.46
2018-12-12T14:13:09.545Z,72.23
2018-12-12T14:15:38.811Z,72.36
2018-12-12T14:18:08.091Z,71.75
2018-12-12T14:20:56.416Z,72.03
2018-12-12T14:23:25.682Z,72.07
2018-12-12T14:25:54.954Z,71.81
2018-12-12T14:28:24.215Z,71.95
2018-12-12T14:30:53.474Z,71.73
2018-12-12T14:33:22.790Z,71.73
2018-12-12T14:35:52.045Z,71.56
2018-12-12T14:38:21.308Z,71.66
2018-12-12T14:40:50.585Z,71.38
2018-12-12T14:43:19.846Z,71.63
2018-12-12T14:45:49.111Z,71.65
2018-12-12T14:48:18.378Z,71.64
2018-12-12T14:50:47.642Z,71.31
2018-12-12T14:56:05.307Z,71.37
2018-12-12T14:58:34.576Z,71.39
2018-12-12T15:01:03.883Z,71.42
2018-12-12T15:03:33.146Z,70.74
2018-12-12T15:06:02.443Z,71.17
2018-12-12T15:08:31.707Z,71.04
2018-12-12T15:11:00.984Z,71.34
2018-12-12T15:13:30.249Z,71.40
2018-12-12T15:15:59.516Z,71.41
2018-12-12T15:18:28.773Z,71.37
2018-12-12T15:20:58.048Z,71.40
2018-12-12T15:23:27.309Z,71.32
2018-12-12T15:25:56.575Z,71.20
2018-12-12T15:28:25.831Z,71.26
2018-12-12T15:30:55.097Z,71.26
2018-12-12T15:33:24.368Z,71.25
2018-12-12T15:35:53.842Z,71.30
2018-12-12T15:38:23.108Z,71.24
2018-12-12T15:40:52.425Z,71.23
2018-12-12T15:43:21.762Z,71.21
2018-12-12T15:45:51.087Z,71.18
2018-12-12T15:48:20.378Z,71.13
2018-12-12T15:50:49.615Z,71.23
2018-12-12T15:53:18.895Z,71.35
2018-12-12T15:55:48.201Z,71.27
2018-12-12T15:58:17.466Z,71.34
2018-12-12T16:00:46.876Z,71.37
2018-12-12T16:03:16.142Z,71.36
2018-12-12T16:05:45.415Z,71.42
2018-12-12T16:08:14.702Z,71.40
2018-12-12T16:10:43.971Z,71.58
2018-12-12T16:13:13.272Z,71.64
2018-12-12T16:15:42.619Z,71.75
2018-12-12T16:18:11.879Z,71.71
2018-12-12T16:20:41.189Z,71.93
2018-12-12T16:23:30.051Z,72.02
2018-12-12T16:25:59.361Z,72.24
2018-12-12T16:28:28.613Z,73.01
2018-12-12T16:30:57.946Z,73.63
2018-12-12T16:33:27.208Z,73.45
2018-12-12T16:36:15.587Z,73.13
2018-12-12T16:38:44.852Z,73.14
2018-12-12T16:41:14.173Z,72.96
2018-12-12T16:43:43.520Z,72.90
2018-12-12T16:46:12.814Z,72.91
2018-12-12T16:48:42.090Z,72.98
2018-12-12T16:51:11.431Z,73.00
2018-12-12T16:53:40.702Z,72.99
2018-12-12T16:56:10.036Z,73.19
2018-12-12T16:58:39.310Z,73.40
2018-12-12T17:01:08.599Z,73.24
2018-12-12T17:03:37.856Z,73.13
2018-12-12T17:08:42.310Z,73.03
2018-12-12T17:11:11.611Z,73.12
2018-12-12T17:13:40.995Z,73.19
2018-12-12T17:16:10.359Z,73.26
2018-12-12T17:18:39.627Z,73.34
2018-12-12T17:21:08.950Z,73.46
2018-12-12T17:23:38.223Z,73.66
2018-12-12T17:26:07.570Z,73.88
2018-12-12T17:28:36.886Z,73.90
2018-12-12T17:31:06.098Z,73.92
2018-12-12T17:33:35.369Z,73.92
2018-12-12T17:36:04.636Z,74.05
2018-12-12T17:38:33.899Z,74.03
2018-12-12T17:41:23.800Z,74.10
2018-12-12T17:43:53.079Z,74.05
2018-12-12T17:46:22.331Z,74.00
2018-12-12T17:49:11.472Z,74.13
2018-12-12T17:51:40.806Z,74.19
2018-12-12T17:54:10.065Z,74.07
2018-12-12T17:56:39.333Z,74.11
2018-12-12T17:59:08.598Z,74.11
2018-12-12T18:01:37.868Z,74.14
2018-12-12T18:04:07.129Z,73.72
2018-12-12T18:06:55.991Z,74.03
2018-12-12T18:09:37.046Z,74.02
2018-12-12T18:12:06.318Z,73.99
2018-12-12T18:14:35.579Z,73.93
2018-12-12T18:17:04.836Z,73.98
2018-12-12T18:19:34.109Z,74.00
2018-12-12T18:22:03.361Z,73.93
2018-12-12T18:24:32.636Z,73.78
2018-12-12T18:27:03.163Z,73.86
2018-12-12T18:29:32.077Z,73.77
2018-12-12T18:32:01.331Z,73.68
2018-12-12T18:34:30.617Z,73.54
2018-12-12T18:36:59.875Z,73.48
2018-12-12T18:39:29.146Z,73.60
2018-12-12T18:41:58.412Z,79.18
2018-12-12T18:44:27.683Z,76.50
2018-12-12T18:46:56.949Z,74.86
2018-12-12T18:49:26.215Z,74.03
2018-12-12T18:51:55.486Z,73.63
2018-12-12T18:54:24.762Z,73.77
2018-12-12T18:56:54.025Z,73.69
2018-12-12T18:59:23.296Z,73.40
2018-12-12T19:01:52.559Z,73.31
2018-12-12T19:04:21.826Z,73.50
2018-12-12T19:06:51.090Z,73.36
2018-12-12T19:09:20.362Z,73.36
2018-12-12T19:11:49.617Z,73.67
2018-12-12T19:14:18.884Z,73.72
2018-12-12T19:16:48.155Z,74.08
2018-12-12T19:19:17.414Z,74.35
2018-12-12T19:21:46.691Z,74.38
2018-12-12T19:24:15.944Z,74.39
2018-12-12T19:26:45.214Z,74.62
2018-12-12T19:29:14.502Z,75.03
2018-12-12T19:31:43.781Z,75.34
2018-12-12T19:34:13.043Z,75.64
2018-12-12T19:36:42.312Z,75.70
2018-12-12T19:39:11.575Z,75.84
2018-12-12T19:41:40.839Z,75.75
2018-12-12T19:44:10.099Z,76.00
2018-12-12T19:46:39.380Z,75.96
2018-12-12T19:49:08.678Z,75.88
2018-12-12T19:51:38.045Z,75.84
2018-12-12T19:54:07.301Z,75.82
2018-12-12T19:56:36.573Z,75.78
2018-12-12T19:59:05.817Z,75.56
2018-12-12T20:01:35.098Z,75.76
2018-12-12T20:04:23.992Z,76.04
2018-12-12T20:06:53.286Z,75.99
2018-12-12T20:09:22.552Z,75.87
2018-12-12T20:12:11.422Z,75.76
2018-12-12T20:14:40.678Z,75.74
2018-12-12T20:17:09.960Z,75.65
2018-12-12T20:19:39.272Z,76.27
2018-12-12T20:22:08.579Z,76.37
2018-12-12T20:24:37.841Z,76.31
2018-12-12T20:27:07.132Z,76.21
2018-12-12T20:29:36.517Z,76.08
2018-12-12T20:32:05.866Z,76.18
2018-12-12T20:34:35.140Z,76.69
2018-12-12T20:37:04.506Z,76.84
2018-12-12T20:39:33.759Z,76.61
2018-12-12T20:42:03.025Z,76.50
2018-12-12T20:44:32.279Z,76.61
2018-12-12T20:47:01.561Z,76.54
2018-12-12T20:49:30.819Z,76.67
2018-12-12T20:52:00.089Z,76.87
2018-12-12T20:54:29.341Z,77.06
2018-12-12T20:56:58.624Z,77.16
2018-12-12T20:59:27.881Z,76.84
2018-12-12T21:01:57.146Z,76.89
2018-12-12T21:04:26.414Z,76.86
2018-12-12T21:06:55.690Z,76.76
2018-12-12T21:09:24.939Z,76.64
2018-12-12T21:11:54.223Z,76.52
2018-12-12T21:14:23.486Z,76.40
2018-12-12T21:17:11.812Z,76.30
2018-12-12T21:19:41.077Z,76.25
2018-12-12T21:22:10.365Z,76.06
2018-12-12T21:24:39.638Z,76.01
2018-12-12T21:27:08.902Z,76.02
2018-12-12T21:29:38.177Z,75.93
2018-12-12T21:32:07.443Z,75.98
2018-12-12T21:34:55.765Z,76.01
2018-12-12T21:37:25.030Z,75.99
2018-12-12T21:39:54.304Z,76.07
2018-12-12T21:42:23.558Z,76.16
2018-12-12T21:44:52.824Z,76.23
2018-12-12T21:47:22.072Z,76.21
2018-12-12T21:49:51.358Z,76.20
2018-12-12T21:52:20.614Z,76.19
2018-12-12T21:54:49.884Z,76.14
2018-12-12T21:57:19.128Z,76.36
2018-12-12T21:59:48.408Z,76.38
2018-12-12T22:02:17.658Z,76.54
2018-12-12T22:04:46.923Z,76.42
2018-12-12T22:07:16.169Z,76.38
2018-12-12T22:09:45.433Z,76.61
2018-12-12T22:12:14.690Z,76.78
2018-12-12T22:14:43.969Z,76.66
2018-12-12T22:17:13.215Z,76.81
2018-12-12T22:19:42.490Z,76.87
2018-12-12T22:22:11.741Z,76.93
2018-12-12T22:24:41.003Z,76.84
2018-12-12T22:27:10.279Z,76.57
2018-12-12T22:29:39.556Z,76.44
2018-12-12T22:32:08.803Z,76.44
2018-12-12T22:34:38.095Z,76.43
2018-12-12T22:37:07.352Z,76.47
2018-12-12T22:39:36.629Z,76.61
2018-12-12T22:42:05.990Z,76.71
2018-12-12T22:44:35.278Z,76.87
2018-12-12T22:47:04.532Z,76.99
2018-12-12T22:49:33.782Z,77.01
2018-12-12T22:52:03.048Z,77.05
2018-12-12T22:54:32.296Z,77.29
2018-12-12T22:57:01.563Z,77.29
2018-12-12T22:59:30.811Z,77.29
2018-12-12T23:02:00.079Z,77.18
2018-12-12T23:04:29.333Z,77.12
2018-12-12T23:06:58.628Z,76.96
2018-12-12T23:09:27.878Z,77.01
2018-12-12T23:11:57.142Z,77.10
2018-12-12T23:14:26.395Z,77.14
2018-12-12T23:16:55.659Z,76.93
2018-12-12T23:19:24.919Z,77.01
2018-12-12T23:21:54.190Z,77.08
2018-12-12T23:24:25.207Z,77.16
2018-12-12T23:26:53.633Z,77.13
2018-12-12T23:29:22.885Z,77.12
2018-12-12T23:31:52.192Z,77.31
2018-12-12T23:34:21.408Z,77.52
2018-12-12T23:36:50.676Z,77.53
2018-12-12T23:39:19.942Z,76.93
2018-12-12T23:41:49.226Z,76.83
2018-12-12T23:44:38.079Z,76.93
2018-12-12T23:47:07.375Z,76.84
2018-12-12T23:49:36.618Z,76.68
2018-12-12T23:52:05.877Z,76.44
2018-12-12T23:54:35.145Z,76.38
2018-12-12T23:57:04.421Z,76.43
2018-12-12T23:59:33.728Z,76.37
